Primera, Texas
Current Conditions -  °F | °C
As of 9:52 AM on Sunday 25 Jan 2015 (Local Time) from KHRL Reporting Station
Clear Clear  
Wind Chill: 15°   Ceiling: Unl
Heat Index: 15°   Visibility: 10mi
Dew Point:   Wind: 10mph
Humidity: 64%   Direction: 220°SW
Pressure: 30.14"   Gusts: NA
Location:  26.2089°N, 97.6849°W
Report Text: KHRL 251552Z 22009KT 10SM CLR 15/08 A3014 RMK AO2 SLP206 T01500083
Loading
Personal Weather Stations






























Interactive Weather Map New forecast layout! Learn more

10-Day Weather Forecast

Advertisements
Track Severe Weather on mobile